Flight Track Log - Related Links

Times and Time Zones

All times are in EST time to prevent confusion due to time zone crossing. See the RPA3446 flight status page for this flight to view local times or setup timezone preferences in your user account.

Time Position Orientation Groundspeed Altitude Reporting Facility
EST Latitude Longitude Course Direction KTS MPH feet Rate Location/Type
Thu 05:21:40 PM 39.2833 -94.7167 177° South 147 169 1,600  Level Kansas City TRACON
Thu 05:22:16 PM 39.2544 -94.7147 177° South 163 188 2,600 1,408 Climbing Kansas City Center
Thu 05:23:18 PM 39.2019 -94.7300 193° South 200 230 3,900 2,032 Climbing Kansas City Center
Thu 05:24:20 PM 39.1439 -94.6789 146° Southeast 283 326 6,800 2,758 Climbing Kansas City Center
Thu 05:25:22 PM 39.1733 -94.5869 68° East 290 334 9,600 2,565 Climbing Kansas City Center
Thu 05:26:24 PM 39.2122 -94.4697 67° East 319 367 12,100 2,371 Climbing Kansas City Center
Thu 05:27:26 PM 39.2475 -94.3656 66° East 330 380 14,500 2,274 Climbing Kansas City Center
Thu 05:28:28 PM 39.2903 -94.2397 66° East 339 390 16,800 2,177 Climbing Kansas City Center
Thu 05:29:30 PM 39.3278 -94.1281 67° East 353 406 19,000 2,081 Climbing Kansas City Center
Thu 05:30:32 PM 39.3717 -93.9939 67° East 359 413 21,100 1,872 Climbing Kansas City Center
Thu 05:31:35 PM 39.3975 -93.8708 75° East 369 425 22,900 1,152 Climbing Kansas City Center
Thu 05:32:37 PM 39.4119 -93.7478 81° East 375 432 23,500 1,210 Climbing Kansas City Center
Thu 05:33:39 PM 39.4306 -93.5867 81° East 380 437 25,400 1,548 Climbing Kansas City Center
Thu 05:34:41 PM 39.4489 -93.4508 80° East 384 442 26,700 1,210 Climbing Kansas City Center
Thu 05:35:43 PM 39.4653 -93.3142 81° East 386 444 27,900 1,113 Climbing Kansas City Center
Thu 05:36:45 PM 39.4831 -93.1728 81° East 398 458 29,000 532 Climbing Kansas City Center
Thu 05:37:47 PM 39.5022 -92.9992 82° East 406 467 29,000  Level Kansas City Center
Thu 05:38:49 PM 39.5178 -92.8547 82° East 406 467 29,000  Level Kansas City Center
Thu 05:39:51 PM 39.5339 -92.7158 81° East 404 465 29,000  Level Kansas City Center
Thu 05:40:53 PM 39.5511 -92.5758 81° East 402 463 29,000  Level Kansas City Center
Thu 05:41:55 PM 39.5661 -92.4375 82° East 399 459 29,000  Level Kansas City Center
Thu 05:42:57 PM 39.5847 -92.2717 82° East 397 457 29,000  Level Kansas City Center
Thu 05:43:59 PM 39.5992 -92.1314 82° East 395 455 29,000  Level Kansas City Center
Thu 05:45:01 PM 39.6150 -91.9914 82° East 395 455 29,000  Level Kansas City Center
Thu 05:46:03 PM 39.6294 -91.8492 82° East 396 456 29,000  Level Kansas City Center
Thu 05:47:06 PM 39.6442 -91.7078 82° East 397 457 29,000  Level Kansas City Center
Thu 05:48:08 PM 39.6625 -91.5381 82° East 397 457 29,000  Level Kansas City Center
Thu 05:49:10 PM 39.6778 -91.3975 82° East 397 457 29,000  Level Kansas City Center
Thu 05:50:12 PM 39.6911 -91.2586 83° East 397 457 29,000  Level Kansas City Center
Thu 05:51:14 PM 39.7053 -91.1167 83° East 397 457 29,000  Level Kansas City Center
Thu 05:52:16 PM 39.7194 -90.9719 83° East 397 457 29,000  Level Kansas City Center
Thu 05:53:18 PM 39.7367 -90.8033 82° East 397 457 29,000  Level Kansas City Center
Thu 05:54:20 PM 39.7500 -90.6611 83° East 397 457 29,000  Level Kansas City Center
Thu 05:55:22 PM 39.7633 -90.5197 83° East 397 457 29,000  Level Kansas City Center
Thu 05:56:24 PM 39.7764 -90.3794 83° East 396 456 29,000  Level Kansas City Center
Thu 05:57:26 PM 39.7897 -90.2372 83° East 396 456 29,000  Level Kansas City Center
Thu 05:58:28 PM 39.8025 -90.0933 83° East 399 459 29,000  Level Kansas City Center
Thu 05:59:30 PM 39.8178 -89.9208 83° East 399 459 29,000  Level Kansas City Center
Thu 06:00:32 PM 39.8308 -89.7797 83° East 399 459 29,000  Level Kansas City Center
Thu 06:01:34 PM 39.8389 -89.6364 86° East 399 459 29,000  Level Kansas City Center
Thu 06:02:37 PM 39.8406 -89.4911 89° East 400 460 29,000  Level Kansas City Center
Thu 06:03:39 PM 39.8408 -89.3458 90° East 401 461 29,000  Level Kansas City Center
Thu 06:04:41 PM 39.8411 -89.1650 90° East 410 472 29,000  Level Kansas City Center
Thu 06:05:43 PM 39.8414 -89.0133 90° East 416 479 29,000  Level Kansas City Center
Thu 06:06:45 PM 39.8431 -88.8617 89° East 419 482 29,000  Level Kansas City Center
Thu 06:07:47 PM 39.8425 -88.7103 90° East 419 482 29,000  Level Kansas City Center
Thu 06:08:49 PM 39.8442 -88.5583 89° East 419 482 29,000  Level Kansas City Center
Thu 06:09:51 PM 39.8425 -88.4006 91° East 430 495 29,000  Level Kansas City Center
Thu 06:10:53 PM 39.8411 -88.2028 90° East 448 516 29,000  Level Kansas City Center
Thu 06:11:48 PM 39.8378 -88.0569 92° East 449 517 29,000 615 Level Indianapolis Center
Thu 06:12:50 PM 39.8369 -87.8908 90° East 452 520 30,200 1,018 Climbing Indianapolis Center
Thu 06:13:40 PM 39.8403 -87.7600 88° East 452 520 30,900 429 Climbing Indianapolis Center
Thu 06:14:42 PM 39.8639 -87.5992 79° East 452 520 31,000 48 Climbing Indianapolis Center
Thu 06:15:44 PM 39.8856 -87.4392 80° East 452 520 31,000  Level Indianapolis Center
Thu 06:16:46 PM 39.9069 -87.2775 80° East 452 520 31,000  Level Indianapolis Center
Thu 06:17:48 PM 39.9325 -87.0814 80° East 453 521 31,000  Level Indianapolis Center
Thu 06:18:50 PM 39.9542 -86.9197 80° East 453 521 31,000  Level Indianapolis Center
Thu 06:19:52 PM 39.9744 -86.7572 81° East 453 521 31,000  Level Indianapolis Center
Thu 06:20:55 PM 39.9950 -86.5919 81° East 454 522 31,000  Level Indianapolis Center
Thu 06:21:57 PM 40.0161 -86.4269 80° East 455 524 31,000  Level Indianapolis Center
Thu 06:22:59 PM 40.0361 -86.2611 81° East 455 524 31,000  Level Indianapolis Center
Thu 06:24:01 PM 40.0578 -86.0953 80° East 455 524 31,000  Level Indianapolis Center
Thu 06:25:03 PM 40.0811 -85.8986 81° East 455 524 31,000  Level Indianapolis Center
Thu 06:26:05 PM 40.0994 -85.7342 82° East 456 525 31,000  Level Indianapolis Center
Thu 06:27:07 PM 40.1197 -85.5703 81° East 456 525 31,000  Level Indianapolis Center
Thu 06:28:09 PM 40.1386 -85.4047 81° East 456 525 31,000  Level Indianapolis Center
Thu 06:29:11 PM 40.1572 -85.2392 82° East 458 527 31,000  Level Indianapolis Center
Thu 06:30:13 PM 40.1708 -85.0722 84° East 460 529 31,000  Level Indianapolis Center
Thu 06:31:16 PM 40.1786 -84.8842 87° East 461 531 31,000  Level Indianapolis Center
Thu 06:32:18 PM 40.1869 -84.7158 86° East 462 532 31,000  Level Indianapolis Center
Thu 06:33:20 PM 40.1953 -84.5472 86° East 462 532 31,000  Level Indianapolis Center
Thu 06:34:22 PM 40.2033 -84.3761 86° East 467 537 31,000  Level Indianapolis Center
Thu 06:35:24 PM 40.2122 -84.1717 87° East 469 540 31,000  Level Indianapolis Center
Thu 06:36:26 PM 40.2189 -83.9992 87° East 470 541 31,000  Level Indianapolis Center
Thu 06:37:28 PM 40.2264 -83.8244 87° East 474 545 31,000  Level Indianapolis Center
Thu 06:38:30 PM 40.2331 -83.6503 87° East 474 545 31,000  Level Indianapolis Center
Thu 06:39:32 PM 40.2389 -83.4733 87° East 478 550 31,000  Level Indianapolis Center
Thu 06:40:34 PM 40.2453 -83.2967 87° East 479 551 31,000  Level Indianapolis Center
Thu 06:41:37 PM 40.2514 -83.1197 87° East 480 552 31,000  Level Indianapolis Center
Thu 06:42:39 PM 40.2575 -82.9422 87° East 484 557 31,000  Level Indianapolis Center
Thu 06:43:41 PM 40.2656 -82.7303 87° East 490 564 31,000  Level Indianapolis Center
Thu 06:44:43 PM 40.2700 -82.5456 88° East 498 573 31,000  Level Indianapolis Center
Thu 06:45:45 PM 40.2742 -82.3603 88° East 502 578 31,000  Level Indianapolis Center
Thu 06:46:47 PM 40.2797 -82.1775 88° East 502 578 31,000  Level Indianapolis Center
Thu 06:47:49 PM 40.2836 -81.9933 88° East 502 578 31,000  Level Indianapolis Center
Thu 06:48:51 PM 40.2886 -81.7781 88° East 502 578 31,000  Level Indianapolis Center
Thu 06:50:27 PM 40.2956 -81.4983 88° East 505 581 31,000  Level Cleveland Center
Thu 06:51:29 PM 40.2989 -81.3214 89° East 493 567 31,000  Level Cleveland Center
Thu 06:52:31 PM 40.3014 -81.1483 89° East 481 554 31,000  Level Cleveland Center
Thu 06:53:33 PM 40.3033 -80.9758 89° East 475 547 31,000 -629 Level Cleveland Center
Thu 06:54:35 PM 40.3064 -80.7697 89° East 473 544 29,700 -1,392 Descending Cleveland Center
Thu 06:55:38 PM 40.3086 -80.5981 89° East 473 544 28,100 -1,296 Descending Cleveland Center
Thu 06:56:40 PM 40.3108 -80.4303 89° East 467 537 27,000 -532 Descending Cleveland Center
Thu 06:57:42 PM 40.3128 -80.2697 89° East 453 521 27,000  Level Cleveland Center
Thu 06:58:44 PM 40.3136 -80.0806 90° East 452 520 27,000  Level Cleveland Center
Thu 06:59:46 PM 40.3147 -79.9203 89° East 449 517 27,000  Level Cleveland Center
Thu 07:00:48 PM 40.3156 -79.7583 90° East 449 517 27,000  Level Cleveland Center
Thu 07:01:50 PM 40.3158 -79.5944 90° East 449 517 27,000  Level Cleveland Center
Thu 07:02:52 PM 40.3150 -79.4303 90° East 450 518 27,000  Level Cleveland Center
Thu 07:03:54 PM 40.3164 -79.2403 89° East 452 520 27,000  Level Cleveland Center
Thu 07:04:57 PM 40.3161 -79.0758 90° East 453 521 27,000  Level Cleveland Center
Thu 07:05:59 PM 40.3169 -78.9042 90° East 473 544 27,000  Level Cleveland Center
Thu 07:07:01 PM 40.3161 -78.6936 90° East 484 557 27,000  Level Cleveland Center
Thu 07:08:03 PM 40.3167 -78.5183 90° East 484 557 27,000 -194 Level Cleveland Center
Thu 07:09:05 PM 40.3161 -78.3431 90° East 485 558 26,600 -968 Descending Cleveland Center
Thu 07:10:07 PM 40.3153 -78.1714 90° East 480 552 25,000 -774 Descending Cleveland Center
Thu 07:11:09 PM 40.3133 -77.9725 91° East 463 533 25,000  Level Cleveland Center
Thu 07:12:11 PM 40.3111 -77.8047 91° East 464 534 25,000 -97 Level Cleveland Center
Thu 07:13:13 PM 40.3097 -77.6381 91° East 464 534 24,800 -1,210 Descending Cleveland Center
Thu 07:14:15 PM 40.3069 -77.4722 91° East 460 529 22,500 -2,516 Descending Cleveland Center
Thu 07:15:17 PM 40.3069 -77.3119 90° East 448 516 19,600 -2,256 Descending Cleveland Center
Thu 07:16:20 PM 40.3033 -77.1583 92° East 432 497 17,800 -1,344 Descending Cleveland Center
Thu 07:17:22 PM 40.2844 -76.9947 99° East 399 459 16,800 -484 Descending Cleveland Center
Thu 07:18:24 PM 40.2528 -76.8553 107° East 395 455 16,800 -484 Level Cleveland Center
Thu 07:19:26 PM 40.2214 -76.7194 107° East 393 452 15,800 -984 Descending Cleveland Center
Thu 07:20:32 PM 40.1842 -76.5581 107° East 386 444 14,700 -1,000 Descending New York Center
Thu 07:21:32 PM 40.1544 -76.4389 108° East 379 436 13,700 -950 Descending New York Center
Thu 07:22:32 PM 40.1286 -76.3281 107° East 332 382 12,800 -950 Descending New York Center
Thu 07:23:32 PM 40.1186 -76.2297 98° East 307 353 11,800 -950 Descending New York Center
Thu 07:24:32 PM 40.1089 -76.1203 97° East 297 342 10,900 -900 Descending New York Center
Thu 07:25:32 PM 40.0994 -76.0056 96° East 292 336 10,000 -850 Descending New York Center
Thu 07:26:32 PM 40.0936 -75.9047 94° East 292 336 9,200 -783 Descending New York Center
Thu 07:28:13 PM 40.0833 -75.7333 94° East 277 319 7,900 -769 Descending Philadelphia TRACON
Thu 07:29:08 PM 40.0833 -75.6333 90° East 273 314 7,200 -737 Descending Philadelphia TRACON
Thu 07:30:07 PM 40.0667 -75.5500 105° East 270 311 6,500 -655 Descending Philadelphia TRACON
Thu 07:31:07 PM 40.0667 -75.4500 90° East 250 288 5,900 -300 Descending Philadelphia TRACON
Thu 07:32:07 PM 40.0167 -75.4000 143° Southeast 206 237 5,900  Level Philadelphia TRACON
Thu 07:33:07 PM 39.9667 -75.3833 166° South 215 247 5,900  Level Philadelphia TRACON
Thu 07:34:07 PM 39.9167 -75.4333 217° Southwest 223 257 5,900 -350 Level Philadelphia TRACON
Thu 07:35:07 PM 39.9167 -75.5000 270° West 176 203 5,200 -500 Descending Philadelphia TRACON
Thu 07:36:07 PM 39.9000 -75.5667 252° West 181 208 4,900 -150 Descending Philadelphia TRACON
Thu 07:37:07 PM 39.8833 -75.6167 247° West 181 208 4,900  Level Philadelphia TRACON
Thu 07:38:08 PM 39.8500 -75.6333 201° Southwest 159 183 4,900 -446 Level Philadelphia TRACON
Thu 07:39:08 PM 39.8167 -75.6000 142° Southeast 162 186 4,000 -864 Descending Philadelphia TRACON
Thu 07:40:13 PM 39.8000 -75.5500 113° Southeast 162 186 3,100 -500 Descending Philadelphia TRACON
Thu 07:43:08 PM 39.8333 -75.4000 74° East 153 176 2,000 -475 Descending Philadelphia TRACON
Thu 07:44:13 PM 39.8500 -75.3500 67° East 122 140 1,200 -720 Descending Philadelphia TRACON
Thu 07:45:13 PM 39.8500 -75.3000 90° East 121 139 500 -700 Descending Philadelphia TRACON

Login

Don't have an account? Register now (free) for customized features, flight alerts, and more!